sensor_id;sensor_type;location;lat;lon;timestamp;pressure;altitude;pressure_sealevel;temperature;humidity
30682;BME280;17439;48.092;11.842;2024-02-14T00:02:00;95893.84;;;3.39;74.16
30682;BME280;17439;48.092;11.842;2024-02-14T00:04:27;95890.09;;;3.40;74.39
30682;BME280;17439;48.092;11.842;2024-02-14T00:06:54;95897.56;;;3.38;74.27
30682;BME280;17439;48.092;11.842;2024-02-14T00:09:21;95891.41;;;3.37;74.24
30682;BME280;17439;48.092;11.842;2024-02-14T00:11:47;95894.09;;;3.37;74.42
30682;BME280;17439;48.092;11.842;2024-02-14T00:14:14;95892.22;;;3.38;74.43
30682;BME280;17439;48.092;11.842;2024-02-14T00:16:41;95895.94;;;3.37;74.35
30682;BME280;17439;48.092;11.842;2024-02-14T00:19:07;95896.78;;;3.37;74.31
30682;BME280;17439;48.092;11.842;2024-02-14T00:21:35;95895.16;;;3.36;74.33
30682;BME280;17439;48.092;11.842;2024-02-14T00:24:01;95893.28;;;3.37;74.53
30682;BME280;17439;48.092;11.842;2024-02-14T00:26:28;95892.47;;;3.36;74.40
30682;BME280;17439;48.092;11.842;2024-02-14T00:28:55;95894.34;;;3.36;74.63
30682;BME280;17439;48.092;11.842;2024-02-14T00:31:22;95889.00;;;3.36;74.55
30682;BME280;17439;48.092;11.842;2024-02-14T00:33:49;95896.78;;;3.37;74.82
30682;BME280;17439;48.092;11.842;2024-02-14T00:36:16;95900.25;;;3.38;75.10
30682;BME280;17439;48.092;11.842;2024-02-14T00:38:42;95902.69;;;3.39;75.16
30682;BME280;17439;48.092;11.842;2024-02-14T00:41:11;95905.13;;;3.41;75.16
30682;BME280;17439;48.092;11.842;2024-02-14T00:43:37;95902.94;;;3.38;75.98
30682;BME280;17439;48.092;11.842;2024-02-14T00:46:04;95896.00;;;3.42;75.62
30682;BME280;17439;48.092;11.842;2024-02-14T00:48:32;95900.84;;;3.45;75.58
30682;BME280;17439;48.092;11.842;2024-02-14T00:50:58;95899.75;;;3.41;76.38
30682;BME280;17439;48.092;11.842;2024-02-14T00:53:25;95900.34;;;3.48;76.37
30682;BME280;17439;48.092;11.842;2024-02-14T00:55:52;95907.88;;;3.51;76.50
30682;BME280;17439;48.092;11.842;2024-02-14T00:58:19;95900.41;;;3.53;76.69
30682;BME280;17439;48.092;11.842;2024-02-14T01:00:45;95905.25;;;3.56;76.76
30682;BME280;17439;48.092;11.842;2024-02-14T01:03:12;95910.91;;;3.60;76.96
30682;BME280;17439;48.092;11.842;2024-02-14T01:05:39;95902.34;;;3.63;77.15
30682;BME280;17439;48.092;11.842;2024-02-14T01:08:06;95906.13;;;3.67;77.67
30682;BME280;17439;48.092;11.842;2024-02-14T01:10:32;95910.72;;;3.72;77.65
30682;BME280;17439;48.092;11.842;2024-02-14T01:12:59;95911.84;;;3.76;77.85
30682;BME280;17439;48.092;11.842;2024-02-14T01:15:26;95911.88;;;3.81;77.88
30682;BME280;17439;48.092;11.842;2024-02-14T01:17:53;95916.47;;;3.86;77.87
30682;BME280;17439;48.092;11.842;2024-02-14T01:20:19;95913.03;;;3.90;78.00
30682;BME280;17439;48.092;11.842;2024-02-14T01:22:46;95919.47;;;3.94;78.06
30682;BME280;17439;48.092;11.842;2024-02-14T01:25:13;95914.19;;;3.99;78.08
30682;BME280;17439;48.092;11.842;2024-02-14T01:27:40;95923.31;;;4.04;78.17
30682;BME280;17439;48.092;11.842;2024-02-14T01:30:07;95912.59;;;4.09;77.89
30682;BME280;17439;48.092;11.842;2024-02-14T01:32:34;95913.19;;;4.11;77.94
30682;BME280;17439;48.092;11.842;2024-02-14T01:35:01;95919.38;;;4.16;78.07
30682;BME280;17439;48.092;11.842;2024-02-14T01:37:28;95922.38;;;4.20;77.94
30682;BME280;17439;48.092;11.842;2024-02-14T01:39:54;95919.16;;;4.23;77.74
30682;BME280;17439;48.092;11.842;2024-02-14T01:42:21;95918.63;;;4.26;77.28
30682;BME280;17439;48.092;11.842;2024-02-14T01:44:48;95918.09;;;4.29;77.28
30682;BME280;17439;48.092;11.842;2024-02-14T01:47:15;95914.38;;;4.30;77.01
30682;BME280;17439;48.092;11.842;2024-02-14T01:49:42;95906.84;;;4.32;76.99
30682;BME280;17439;48.092;11.842;2024-02-14T01:52:08;95900.16;;;4.35;77.03
30682;BME280;17439;48.092;11.842;2024-02-14T01:54:35;95907.97;;;4.36;76.95
30682;BME280;17439;48.092;11.842;2024-02-14T01:57:02;95915.50;;;4.40;77.26
30682;BME280;17439;48.092;11.842;2024-02-14T01:59:30;95910.94;;;4.40;77.16
30682;BME280;17439;48.092;11.842;2024-02-14T02:01:57;95908.53;;;4.44;77.44
30682;BME280;17439;48.092;11.842;2024-02-14T02:04:23;95909.09;;;4.46;77.36
30682;BME280;17439;48.092;11.842;2024-02-14T02:06:50;95919.31;;;4.49;77.63
30682;BME280;17439;48.092;11.842;2024-02-14T02:09:17;95915.28;;;4.51;77.75
30682;BME280;17439;48.092;11.842;2024-02-14T02:11:50;95913.16;;;4.53;76.35
30682;BME280;17439;48.092;11.842;2024-02-14T02:14:17;95914.25;;;4.58;77.93
30682;BME280;17439;48.092;11.842;2024-02-14T02:16:43;95909.16;;;4.61;78.14
30682;BME280;17439;48.092;11.842;2024-02-14T02:19:10;95914.00;;;4.64;78.02
30682;BME280;17439;48.092;11.842;2024-02-14T02:21:37;95915.91;;;4.69;78.01
30682;BME280;17439;48.092;11.842;2024-02-14T02:24:05;95908.41;;;4.71;78.11
30682;BME280;17439;48.092;11.842;2024-02-14T02:26:31;95915.13;;;4.73;77.99
30682;BME280;17439;48.092;11.842;2024-02-14T02:28:58;95917.28;;;4.77;77.79
30682;BME280;17439;48.092;11.842;2024-02-14T02:31:25;95917.81;;;4.79;77.82
30682;BME280;17439;48.092;11.842;2024-02-14T02:33:52;95927.00;;;4.83;77.86
30682;BME280;17439;48.092;11.842;2024-02-14T02:36:18;95925.66;;;4.85;78.10
30682;BME280;17439;48.092;11.842;2024-02-14T02:38:45;95929.69;;;4.88;78.00
30682;BME280;17439;48.092;11.842;2024-02-14T02:41:12;95923.00;;;4.90;78.08
30682;BME280;17439;48.092;11.842;2024-02-14T02:43:39;95925.41;;;4.92;77.87
30682;BME280;17439;48.092;11.842;2024-02-14T02:46:05;95932.97;;;4.95;77.98
30682;BME280;17439;48.092;11.842;2024-02-14T02:48:32;95919.25;;;4.97;77.45
30682;BME280;17439;48.092;11.842;2024-02-14T02:50:59;95922.75;;;4.97;77.36
30682;BME280;17439;48.092;11.842;2024-02-14T02:53:26;95914.41;;;4.99;76.88
30682;BME280;17439;48.092;11.842;2024-02-14T02:55:52;95925.16;;;4.99;76.74
30682;BME280;17439;48.092;11.842;2024-02-14T02:58:20;95926.22;;;4.98;76.24
30682;BME280;17439;48.092;11.842;2024-02-14T03:00:46;95931.88;;;4.96;75.92
30682;BME280;17439;48.092;11.842;2024-02-14T03:03:13;95929.44;;;4.95;75.52
30682;BME280;17439;48.092;11.842;2024-02-14T03:05:40;95932.69;;;4.92;75.25
30682;BME280;17439;48.092;11.842;2024-02-14T03:08:07;95928.63;;;4.89;75.01
30682;BME280;17439;48.092;11.842;2024-02-14T03:10:33;95929.16;;;4.86;74.80
30682;BME280;17439;48.092;11.842;2024-02-14T03:13:00;95928.63;;;4.84;74.42
30682;BME280;17439;48.092;11.842;2024-02-14T03:15:27;95922.13;;;4.80;74.35
30682;BME280;17439;48.092;11.842;2024-02-14T03:17:53;95931.25;;;4.79;74.37
30682;BME280;17439;48.092;11.842;2024-02-14T03:20:20;95930.72;;;4.77;74.58
30682;BME280;17439;48.092;11.842;2024-02-14T03:22:47;95929.38;;;4.74;74.81
30682;BME280;17439;48.092;11.842;2024-02-14T03:25:19;95924.53;;;4.71;72.86
30682;BME280;17439;48.092;11.842;2024-02-14T03:27:47;95922.66;;;4.71;74.77
30682;BME280;17439;48.092;11.842;2024-02-14T03:30:15;95913.78;;;4.71;75.11
30682;BME280;17439;48.092;11.842;2024-02-14T03:32:42;95922.91;;;4.70;75.23
30682;BME280;17439;48.092;11.842;2024-02-14T03:35:09;95928.00;;;4.71;75.33
30682;BME280;17439;48.092;11.842;2024-02-14T03:37:37;95929.06;;;4.70;75.16
30682;BME280;17439;48.092;11.842;2024-02-14T03:40:04;95929.06;;;4.70;75.30
30682;BME280;17439;48.092;11.842;2024-02-14T03:42:31;95922.91;;;4.70;75.50
30682;BME280;17439;48.092;11.842;2024-02-14T03:44:57;95925.34;;;4.71;75.60
30682;BME280;17439;48.092;11.842;2024-02-14T03:47:24;95923.44;;;4.72;75.64
30682;BME280;17439;48.092;11.842;2024-02-14T03:49:51;95932.06;;;4.74;75.74
30682;BME280;17439;48.092;11.842;2024-02-14T03:52:18;95930.19;;;4.75;75.96
30682;BME280;17439;48.092;11.842;2024-02-14T03:54:45;95928.03;;;4.77;75.80
30682;BME280;17439;48.092;11.842;2024-02-14T03:57:11;95926.16;;;4.77;75.81
30682;BME280;17439;48.092;11.842;2024-02-14T03:59:38;95913.53;;;4.78;75.37
30682;BME280;17439;48.092;11.842;2024-02-14T04:02:05;95918.91;;;4.78;75.15
30682;BME280;17439;48.092;11.842;2024-02-14T04:04:32;95925.09;;;4.78;74.73
30682;BME280;17439;48.092;11.842;2024-02-14T04:06:59;95925.59;;;4.75;74.21
30682;BME280;17439;48.092;11.842;2024-02-14T04:09:26;95929.66;;;4.72;73.71
30682;BME280;17439;48.092;11.842;2024-02-14T04:11:53;95939.03;;;4.70;73.31
30682;BME280;17439;48.092;11.842;2024-02-14T04:14:19;95937.91;;;4.66;72.79
30682;BME280;17439;48.092;11.842;2024-02-14T04:16:46;95937.09;;;4.60;72.29
30682;BME280;17439;48.092;11.842;2024-02-14T04:19:13;95941.63;;;4.54;71.96
30682;BME280;17439;48.092;11.842;2024-02-14T04:21:40;95933.81;;;4.48;71.72
30682;BME280;17439;48.092;11.842;2024-02-14T04:24:07;95936.72;;;4.41;71.75
30682;BME280;17439;48.092;11.842;2024-02-14T04:26:34;95928.91;;;4.34;71.78
30682;BME280;17439;48.092;11.842;2024-02-14T04:29:01;95932.63;;;4.28;71.65
30682;BME280;17439;48.092;11.842;2024-02-14T04:31:28;95929.34;;;4.21;71.59
30682;BME280;17439;48.092;11.842;2024-02-14T04:33:55;95932.78;;;4.16;71.75
30682;BME280;17439;48.092;11.842;2024-02-14T04:36:22;95927.66;;;4.10;71.63
30682;BME280;17439;48.092;11.842;2024-02-14T04:38:49;95924.13;;;4.04;71.44
30682;BME280;17439;48.092;11.842;2024-02-14T04:41:16;95927.84;;;3.98;71.58
30682;BME280;17439;48.092;11.842;2024-02-14T04:43:43;95931.28;;;3.93;71.59
30682;BME280;17439;48.092;11.842;2024-02-14T04:46:10;95925.91;;;3.88;71.69
30682;BME280;17439;48.092;11.842;2024-02-14T04:48:37;95927.47;;;3.84;71.89
30682;BME280;17439;48.092;11.842;2024-02-14T04:51:04;95922.88;;;3.79;72.28
30682;BME280;17439;48.092;11.842;2024-02-14T04:53:31;95926.84;;;3.77;72.42
30682;BME280;17439;48.092;11.842;2024-02-14T04:55:58;95916.38;;;3.75;72.89
30682;BME280;17439;48.092;11.842;2024-02-14T04:58:25;95923.63;;;3.75;73.47
30682;BME280;17439;48.092;11.842;2024-02-14T05:00:52;95913.97;;;3.74;73.95
30682;BME280;17439;48.092;11.842;2024-02-14T05:03:19;95917.22;;;3.76;74.26
30682;BME280;17439;48.092;11.842;2024-02-14T05:05:46;95920.44;;;3.78;74.98
30682;BME280;17439;48.092;11.842;2024-02-14T05:08:13;95916.44;;;3.80;75.30
30682;BME280;17439;48.092;11.842;2024-02-14T05:10:40;95917.53;;;3.85;75.68
30682;BME280;17439;48.092;11.842;2024-02-14T05:13:06;95910.88;;;3.87;75.74
30682;BME280;17439;48.092;11.842;2024-02-14T05:15:33;95918.41;;;3.90;76.13
30682;BME280;17439;48.092;11.842;2024-02-14T05:18:00;95916.81;;;3.94;76.25
30682;BME280;17439;48.092;11.842;2024-02-14T05:20:27;95915.22;;;3.98;76.54
30682;BME280;17439;48.092;11.842;2024-02-14T05:22:54;95926.00;;;4.04;76.60
30682;BME280;17439;48.092;11.842;2024-02-14T05:25:20;95922.28;;;4.10;76.87
30682;BME280;17439;48.092;11.842;2024-02-14T05:27:47;95920.72;;;4.14;76.81
30682;BME280;17439;48.092;11.842;2024-02-14T05:30:14;95920.75;;;4.19;77.07
30682;BME280;17439;48.092;11.842;2024-02-14T05:32:41;95925.34;;;4.24;77.10
30682;BME280;17439;48.092;11.842;2024-02-14T05:35:08;95911.94;;;4.29;76.90
30682;BME280;17439;48.092;11.842;2024-02-14T05:37:34;95919.22;;;4.33;76.96
30682;BME280;17439;48.092;11.842;2024-02-14T05:40:05;95923.28;;;4.36;76.72
30682;BME280;17439;48.092;11.842;2024-02-14T05:42:32;95921.66;;;4.40;76.73
30682;BME280;17439;48.092;11.842;2024-02-14T05:44:58;95918.47;;;4.43;76.71
30682;BME280;17439;48.092;11.842;2024-02-14T05:47:25;95917.16;;;4.46;76.46
30682;BME280;17439;48.092;11.842;2024-02-14T05:49:52;95925.75;;;4.48;76.26
30682;BME280;17439;48.092;11.842;2024-02-14T05:52:19;95927.13;;;4.50;76.05
30682;BME280;17439;48.092;11.842;2024-02-14T05:54:46;95919.84;;;4.51;75.77
30682;BME280;17439;48.092;11.842;2024-02-14T05:57:12;95931.13;;;4.53;75.57
30682;BME280;17439;48.092;11.842;2024-02-14T05:59:39;95933.03;;;4.52;75.82
30682;BME280;17439;48.092;11.842;2024-02-14T06:02:06;95936.25;;;4.54;76.03
30682;BME280;17439;48.092;11.842;2024-02-14T06:04:33;95927.13;;;4.56;76.30
30682;BME280;17439;48.092;11.842;2024-02-14T06:06:59;95940.03;;;4.59;76.45
30682;BME280;17439;48.092;11.842;2024-02-14T06:09:26;95934.94;;;4.62;76.49
30682;BME280;17439;48.092;11.842;2024-02-14T06:11:53;95942.50;;;4.65;76.88
30682;BME280;17439;48.092;11.842;2024-02-14T06:14:20;95943.59;;;4.69;77.21
30682;BME280;17439;48.092;11.842;2024-02-14T06:16:46;95946.81;;;4.71;77.25
30682;BME280;17439;48.092;11.842;2024-02-14T06:19:13;95949.53;;;4.77;77.30
30682;BME280;17439;48.092;11.842;2024-02-14T06:21:40;95947.94;;;4.81;77.77
30682;BME280;17439;48.092;11.842;2024-02-14T06:24:07;95956.81;;;4.86;77.62
30682;BME280;17439;48.092;11.842;2024-02-14T06:26:34;95957.13;;;4.90;77.79
30682;BME280;17439;48.092;11.842;2024-02-14T06:29:01;95962.50;;;4.95;77.99
30682;BME280;17439;48.092;11.842;2024-02-14T06:31:27;95959.03;;;5.00;78.00
30682;BME280;17439;48.092;11.842;2024-02-14T06:33:54;95959.31;;;5.03;78.15
30682;BME280;17439;48.092;11.842;2024-02-14T06:36:21;95963.66;;;5.09;78.29
30682;BME280;17439;48.092;11.842;2024-02-14T06:38:48;95965.53;;;5.14;78.34
30682;BME280;17439;48.092;11.842;2024-02-14T06:41:15;95970.94;;;5.19;78.67
30682;BME280;17439;48.092;11.842;2024-02-14T06:43:41;95973.38;;;5.26;78.78
30682;BME280;17439;48.092;11.842;2024-02-14T06:46:08;95975.00;;;5.32;79.14
30682;BME280;17439;48.092;11.842;2024-02-14T06:48:35;95976.66;;;5.38;79.25
30682;BME280;17439;48.092;11.842;2024-02-14T06:51:02;95980.69;;;5.46;79.34
30682;BME280;17439;48.092;11.842;2024-02-14T06:53:29;95965.38;;;5.52;79.74
30682;BME280;17439;48.092;11.842;2024-02-14T06:55:55;95970.53;;;5.58;79.52
30682;BME280;17439;48.092;11.842;2024-02-14T06:58:22;95979.91;;;5.66;79.71
30682;BME280;17439;48.092;11.842;2024-02-14T07:00:49;95971.63;;;5.73;79.79
30682;BME280;17439;48.092;11.842;2024-02-14T07:03:16;95971.34;;;5.79;79.79
30682;BME280;17439;48.092;11.842;2024-02-14T07:05:43;95964.63;;;5.87;80.08
30682;BME280;17439;48.092;11.842;2024-02-14T07:08:10;95964.63;;;5.92;79.69
30682;BME280;17439;48.092;11.842;2024-02-14T07:10:37;95961.69;;;5.99;79.79
30682;BME280;17439;48.092;11.842;2024-02-14T07:13:03;95968.69;;;6.05;79.70
30682;BME280;17439;48.092;11.842;2024-02-14T07:15:30;95957.94;;;6.10;79.91
30682;BME280;17439;48.092;11.842;2024-02-14T07:17:57;95971.66;;;6.19;79.84
30682;BME280;17439;48.092;11.842;2024-02-14T07:20:24;95977.03;;;6.24;79.78
30682;BME280;17439;48.092;11.842;2024-02-14T07:22:51;95975.16;;;6.30;79.73
30682;BME280;17439;48.092;11.842;2024-02-14T07:25:19;95976.75;;;6.36;80.04
30682;BME280;17439;48.092;11.842;2024-02-14T07:27:46;95986.44;;;6.42;80.21
30682;BME280;17439;48.092;11.842;2024-02-14T07:30:12;95983.47;;;6.49;80.15
30682;BME280;17439;48.092;11.842;2024-02-14T07:32:39;95982.38;;;6.55;80.13
30682;BME280;17439;48.092;11.842;2024-02-14T07:35:07;95987.53;;;6.62;80.15
30682;BME280;17439;48.092;11.842;2024-02-14T07:37:34;95987.22;;;6.68;80.08
30682;BME280;17439;48.092;11.842;2024-02-14T07:40:00;96003.13;;;6.75;79.92
30682;BME280;17439;48.092;11.842;2024-02-14T07:42:27;95995.81;;;6.81;80.06
30682;BME280;17439;48.092;11.842;2024-02-14T07:44:54;96007.13;;;6.88;80.34
30682;BME280;17439;48.092;11.842;2024-02-14T07:47:20;96003.34;;;6.94;80.62
30682;BME280;17439;48.092;11.842;2024-02-14T07:49:47;96002.25;;;7.00;80.65
30682;BME280;17439;48.092;11.842;2024-02-14T07:52:14;96005.44;;;7.07;80.80
30682;BME280;17439;48.092;11.842;2024-02-14T07:54:41;95996.00;;;7.15;80.77
30682;BME280;17439;48.092;11.842;2024-02-14T07:57:08;95999.22;;;7.22;80.75
30682;BME280;17439;48.092;11.842;2024-02-14T07:59:35;95997.84;;;7.30;81.31
30682;BME280;17439;48.092;11.842;2024-02-14T08:02:01;96006.16;;;7.39;81.27
30682;BME280;17439;48.092;11.842;2024-02-14T08:04:28;96002.88;;;7.47;81.07
30682;BME280;17439;48.092;11.842;2024-02-14T08:06:55;96007.69;;;7.55;81.15
30682;BME280;17439;48.092;11.842;2024-02-14T08:09:22;96001.72;;;7.63;81.44
30682;BME280;17439;48.092;11.842;2024-02-14T08:11:48;96004.09;;;7.70;80.71
30682;BME280;17439;48.092;11.842;2024-02-14T08:14:15;96004.59;;;7.77;80.83
30682;BME280;17439;48.092;11.842;2024-02-14T08:16:42;96007.81;;;7.85;80.51
30682;BME280;17439;48.092;11.842;2024-02-14T08:19:08;96011.25;;;7.90;79.53
30682;BME280;17439;48.092;11.842;2024-02-14T08:21:35;96012.56;;;7.98;80.34
30682;BME280;17439;48.092;11.842;2024-02-14T08:24:02;96010.38;;;8.05;80.93
30682;BME280;17439;48.092;11.842;2024-02-14T08:26:29;96018.16;;;8.12;80.57
30682;BME280;17439;48.092;11.842;2024-02-14T08:28:56;96011.63;;;8.18;80.51
30682;BME280;17439;48.092;11.842;2024-02-14T08:31:23;96021.31;;;8.24;80.43
30682;BME280;17439;48.092;11.842;2024-02-14T08:33:49;96015.06;;;8.29;79.46
30682;BME280;17439;48.092;11.842;2024-02-14T08:36:17;96014.72;;;8.35;80.47
30682;BME280;17439;48.092;11.842;2024-02-14T08:38:43;96007.66;;;8.40;79.71
30682;BME280;17439;48.092;11.842;2024-02-14T08:41:10;96010.09;;;8.46;80.01
30682;BME280;17439;48.092;11.842;2024-02-14T08:43:37;96010.03;;;8.51;80.50
30682;BME280;17439;48.092;11.842;2024-02-14T08:46:09;96018.09;;;8.57;71.96
30682;BME280;17439;48.092;11.842;2024-02-14T08:48:36;96017.47;;;8.65;79.62
30682;BME280;17439;48.092;11.842;2024-02-14T08:51:03;96017.72;;;8.68;79.26
30682;BME280;17439;48.092;11.842;2024-02-14T08:53:30;96009.28;;;8.75;79.45
30682;BME280;17439;48.092;11.842;2024-02-14T08:55:57;96011.13;;;8.80;77.96
30682;BME280;17439;48.092;11.842;2024-02-14T08:58:23;96016.47;;;8.85;78.65
30682;BME280;17439;48.092;11.842;2024-02-14T09:00:50;96011.59;;;8.87;75.21
30682;BME280;17439;48.092;11.842;2024-02-14T09:03:30;96013.44;;;8.92;77.40
30682;BME280;17439;48.092;11.842;2024-02-14T09:05:57;96013.91;;;8.99;78.78
30682;BME280;17439;48.092;11.842;2024-02-14T09:08:24;96012.53;;;9.01;78.12
30682;BME280;17439;48.092;11.842;2024-02-14T09:10:53;96015.16;;;9.06;78.01
30682;BME280;17439;48.092;11.842;2024-02-14T09:13:20;96013.22;;;9.12;79.19
30682;BME280;17439;48.092;11.842;2024-02-14T09:15:47;96015.06;;;9.17;78.55
30682;BME280;17439;48.092;11.842;2024-02-14T09:18:14;96018.78;;;9.21;78.42
30682;BME280;17439;48.092;11.842;2024-02-14T09:20:40;96021.75;;;9.24;76.95
30682;BME280;17439;48.092;11.842;2024-02-14T09:23:07;96013.78;;;9.33;79.46
30682;BME280;17439;48.092;11.842;2024-02-14T09:25:34;96018.34;;;9.38;78.85
30682;BME280;17439;48.092;11.842;2024-02-14T09:28:01;96016.09;;;9.45;78.58
30682;BME280;17439;48.092;11.842;2024-02-14T09:30:28;96016.53;;;9.52;79.30
30682;BME280;17439;48.092;11.842;2024-02-14T09:33:04;96012.59;;;9.63;80.36
30682;BME280;17439;48.092;11.842;2024-02-14T09:35:31;96010.06;;;9.72;80.82
30682;BME280;17439;48.092;11.842;2024-02-14T09:37:58;96008.25;;;9.87;81.20
30682;BME280;17439;48.092;11.842;2024-02-14T09:40:25;96015.13;;;9.98;80.98
30682;BME280;17439;48.092;11.842;2024-02-14T09:42:54;96013.88;;;10.09;79.16
30682;BME280;17439;48.092;11.842;2024-02-14T09:45:24;96010.41;;;10.23;76.37
30682;BME280;17439;48.092;11.842;2024-02-14T09:47:54;96016.22;;;10.35;74.10
30682;BME280;17439;48.092;11.842;2024-02-14T09:50:23;96008.44;;;10.47;78.87
30682;BME280;17439;48.092;11.842;2024-02-14T09:52:51;96012.59;;;10.59;81.06
30682;BME280;17439;48.092;11.842;2024-02-14T09:55:18;96020.56;;;10.69;81.13
30682;BME280;17439;48.092;11.842;2024-02-14T09:57:46;96009.53;;;10.79;77.92
30682;BME280;17439;48.092;11.842;2024-02-14T10:00:13;96003.91;;;10.89;81.05
30682;BME280;17439;48.092;11.842;2024-02-14T10:02:41;96007.53;;;10.99;79.95
30682;BME280;17439;48.092;11.842;2024-02-14T10:05:08;96012.50;;;11.11;80.85
30682;BME280;17439;48.092;11.842;2024-02-14T10:07:41;96008.78;;;11.20;71.58
30682;BME280;17439;48.092;11.842;2024-02-14T10:10:09;96005.25;;;11.34;81.04
30682;BME280;17439;48.092;11.842;2024-02-14T10:12:36;95997.69;;;11.44;80.64
30682;BME280;17439;48.092;11.842;2024-02-14T10:15:03;95995.59;;;11.55;80.42
30682;BME280;17439;48.092;11.842;2024-02-14T10:17:32;96004.81;;;11.68;76.94
30682;BME280;17439;48.092;11.842;2024-02-14T10:20:01;95997.25;;;11.79;79.21
30682;BME280;17439;48.092;11.842;2024-02-14T10:22:38;95994.31;;;11.89;69.75
30682;BME280;17439;48.092;11.842;2024-02-14T10:25:05;96004.38;;;12.03;80.54
30682;BME280;17439;48.092;11.842;2024-02-14T10:27:32;96002.81;;;12.10;80.29
30682;BME280;17439;48.092;11.842;2024-02-14T10:29:59;95993.97;;;12.19;80.76
30682;BME280;17439;48.092;11.842;2024-02-14T10:32:27;95989.69;;;12.26;79.50
30682;BME280;17439;48.092;11.842;2024-02-14T10:34:54;95986.88;;;12.31;78.38
30682;BME280;17439;48.092;11.842;2024-02-14T10:37:21;95982.41;;;12.36;79.10
30682;BME280;17439;48.092;11.842;2024-02-14T10:39:50;95988.22;;;12.43;79.55
30682;BME280;17439;48.092;11.842;2024-02-14T10:42:18;95978.31;;;12.47;78.25
30682;BME280;17439;48.092;11.842;2024-02-14T10:44:45;95982.53;;;12.53;78.74
30682;BME280;17439;48.092;11.842;2024-02-14T10:47:14;95970.41;;;12.59;76.51
30682;BME280;17439;48.092;11.842;2024-02-14T10:49:46;95976.22;;;12.66;78.02
30682;BME280;17439;48.092;11.842;2024-02-14T10:52:15;95975.59;;;12.69;76.50
30682;BME280;17439;48.092;11.842;2024-02-14T10:54:43;95974.31;;;12.76;79.06
30682;BME280;17439;48.092;11.842;2024-02-14T10:57:15;95978.03;;;12.80;77.82
30682;BME280;17439;48.092;11.842;2024-02-14T10:59:44;95975.81;;;12.82;76.54
30682;BME280;17439;48.092;11.842;2024-02-14T11:02:13;95979.53;;;12.86;78.05
30682;BME280;17439;48.092;11.842;2024-02-14T11:04:40;95975.69;;;12.87;78.37
30682;BME280;17439;48.092;11.842;2024-02-14T11:07:10;95975.88;;;12.91;72.69
30682;BME280;17439;48.092;11.842;2024-02-14T11:09:37;95976.03;;;12.94;77.37
30682;BME280;17439;48.092;11.842;2024-02-14T11:12:10;95978.44;;;12.96;68.81
30682;BME280;17439;48.092;11.842;2024-02-14T11:14:37;95972.22;;;12.95;74.56
30682;BME280;17439;48.092;11.842;2024-02-14T11:17:08;95978.91;;;12.98;77.21
30682;BME280;17439;48.092;11.842;2024-02-14T11:19:36;95970.13;;;13.01;77.39
30682;BME280;17439;48.092;11.842;2024-02-14T11:22:09;95964.84;;;12.96;73.41
30682;BME280;17439;48.092;11.842;2024-02-14T11:24:36;95963.44;;;13.07;79.34
30682;BME280;17439;48.092;11.842;2024-02-14T11:27:03;95950.19;;;13.14;79.33
30682;BME280;17439;48.092;11.842;2024-02-14T11:29:51;95959.63;;;13.17;62.18
30682;BME280;17439;48.092;11.842;2024-02-14T11:32:19;95954.22;;;13.25;78.37
30682;BME280;17439;48.092;11.842;2024-02-14T11:34:55;95956.31;;;13.29;70.15
30682;BME280;17439;48.092;11.842;2024-02-14T11:37:29;95949.13;;;13.33;70.62
30682;BME280;17439;48.092;11.842;2024-02-14T11:39:55;95945.66;;;13.41;78.27
30682;BME280;17439;48.092;11.842;2024-02-14T11:42:22;95949.03;;;13.47;78.76
30682;BME280;17439;48.092;11.842;2024-02-14T11:44:52;95935.25;;;13.52;79.65
30682;BME280;17439;48.092;11.842;2024-02-14T11:47:19;95945.03;;;13.61;79.76
30682;BME280;17439;48.092;11.842;2024-02-14T11:49:46;95928.72;;;13.70;79.85
30682;BME280;17439;48.092;11.842;2024-02-14T11:52:13;95925.19;;;13.78;79.76
30682;BME280;17439;48.092;11.842;2024-02-14T11:54:46;95931.44;;;13.88;72.22
30682;BME280;17439;48.092;11.842;2024-02-14T11:57:16;95928.06;;;14.00;73.17
30682;BME280;17439;48.092;11.842;2024-02-14T11:59:43;95922.94;;;14.15;80.52
30682;BME280;17439;48.092;11.842;2024-02-14T12:02:10;95912.19;;;14.28;79.38
30682;BME280;17439;48.092;11.842;2024-02-14T12:04:37;95914.25;;;14.40;79.63
30682;BME280;17439;48.092;11.842;2024-02-14T12:07:04;95917.94;;;14.52;79.87
30682;BME280;17439;48.092;11.842;2024-02-14T12:09:31;95920.78;;;14.65;80.08
30682;BME280;17439;48.092;11.842;2024-02-14T12:11:58;95908.75;;;14.75;79.59
30682;BME280;17439;48.092;11.842;2024-02-14T12:14:24;95910.16;;;14.81;78.59
30682;BME280;17439;48.092;11.842;2024-02-14T12:16:56;95908.03;;;14.86;70.58
30682;BME280;17439;48.092;11.842;2024-02-14T12:19:25;95906.41;;;14.94;78.39
30682;BME280;17439;48.092;11.842;2024-02-14T12:21:56;95906.22;;;14.99;77.89
30682;BME280;17439;48.092;11.842;2024-02-14T12:24:22;95907.97;;;15.04;77.80
30682;BME280;17439;48.092;11.842;2024-02-14T12:26:49;95902.97;;;15.06;76.36
30682;BME280;17439;48.092;11.842;2024-02-14T12:29:16;95907.00;;;15.09;75.43
30682;BME280;17439;48.092;11.842;2024-02-14T12:31:43;95913.38;;;15.13;77.04
30682;BME280;17439;48.092;11.842;2024-02-14T12:34:11;95910.31;;;15.14;76.87
30682;BME280;17439;48.092;11.842;2024-02-14T12:36:39;95924.78;;;15.15;75.94
30682;BME280;17439;48.092;11.842;2024-02-14T12:39:05;95919.81;;;15.17;76.60
30682;BME280;17439;48.092;11.842;2024-02-14T12:41:32;95913.53;;;15.16;75.26
30682;BME280;17439;48.092;11.842;2024-02-14T12:43:59;95921.75;;;15.16;75.32
30682;BME280;17439;48.092;11.842;2024-02-14T12:46:26;95919.00;;;15.16;74.73
30682;BME280;17439;48.092;11.842;2024-02-14T12:48:54;95914.00;;;15.18;75.70
30682;BME280;17439;48.092;11.842;2024-02-14T12:51:21;95916.41;;;15.20;75.88
30682;BME280;17439;48.092;11.842;2024-02-14T12:53:47;95913.34;;;15.21;75.97
30682;BME280;17439;48.092;11.842;2024-02-14T12:56:14;95910.75;;;15.25;76.81
30682;BME280;17439;48.092;11.842;2024-02-14T12:58:41;95904.31;;;15.30;77.02